sensor_id;sensor_type;location;lat;lon;timestamp;temperature;humidity
20866;DHT22;10593;48.398;10.698;2023-03-24T00:00:40;16.90;46.30
20866;DHT22;10593;48.398;10.698;2023-03-24T00:03:06;16.90;46.30
20866;DHT22;10593;48.398;10.698;2023-03-24T00:05:32;16.90;46.30
20866;DHT22;10593;48.398;10.698;2023-03-24T00:07:58;16.90;46.30
20866;DHT22;10593;48.398;10.698;2023-03-24T00:10:24;16.90;46.30
20866;DHT22;10593;48.398;10.698;2023-03-24T00:12:55;16.80;46.20
20866;DHT22;10593;48.398;10.698;2023-03-24T00:15:23;16.80;46.20
20866;DHT22;10593;48.398;10.698;2023-03-24T00:17:50;16.80;46.20
20866;DHT22;10593;48.398;10.698;2023-03-24T00:20:18;16.80;46.20
20866;DHT22;10593;48.398;10.698;2023-03-24T00:22:49;16.80;46.20
20866;DHT22;10593;48.398;10.698;2023-03-24T00:25:22;16.80;46.20
20866;DHT22;10593;48.398;10.698;2023-03-24T00:27:52;16.80;46.20
20866;DHT22;10593;48.398;10.698;2023-03-24T00:30:18;16.80;46.20
20866;DHT22;10593;48.398;10.698;2023-03-24T00:32:45;16.80;46.20
20866;DHT22;10593;48.398;10.698;2023-03-24T00:35:13;16.80;46.20
20866;DHT22;10593;48.398;10.698;2023-03-24T00:37:41;16.80;46.20
20866;DHT22;10593;48.398;10.698;2023-03-24T00:40:10;16.80;46.20
20866;DHT22;10593;48.398;10.698;2023-03-24T00:42:41;16.80;46.20
20866;DHT22;10593;48.398;10.698;2023-03-24T00:45:11;16.80;46.20
20866;DHT22;10593;48.398;10.698;2023-03-24T00:47:45;16.70;46.20
20866;DHT22;10593;48.398;10.698;2023-03-24T00:50:15;16.80;46.30
20866;DHT22;10593;48.398;10.698;2023-03-24T00:52:43;16.70;46.20
20866;DHT22;10593;48.398;10.698;2023-03-24T00:55:12;16.70;46.30
20866;DHT22;10593;48.398;10.698;2023-03-24T00:57:42;16.70;46.50
20866;DHT22;10593;48.398;10.698;2023-03-24T01:00:25;16.70;46.60
20866;DHT22;10593;48.398;10.698;2023-03-24T01:02:53;16.70;46.60
20866;DHT22;10593;48.398;10.698;2023-03-24T01:05:26;16.70;46.60
20866;DHT22;10593;48.398;10.698;2023-03-24T01:07:58;16.70;46.60
20866;DHT22;10593;48.398;10.698;2023-03-24T01:10:28;16.70;46.60
20866;DHT22;10593;48.398;10.698;2023-03-24T01:12:58;16.70;46.60
20866;DHT22;10593;48.398;10.698;2023-03-24T01:15:31;16.60;46.50
20866;DHT22;10593;48.398;10.698;2023-03-24T01:17:58;16.70;47.20
20866;DHT22;10593;48.398;10.698;2023-03-24T01:20:27;16.60;47.10
20866;DHT22;10593;48.398;10.698;2023-03-24T01:22:58;16.70;47.40
20866;DHT22;10593;48.398;10.698;2023-03-24T01:25:25;16.70;47.50
20866;DHT22;10593;48.398;10.698;2023-03-24T01:27:52;16.60;47.60
20866;DHT22;10593;48.398;10.698;2023-03-24T01:30:22;16.60;47.70
20866;DHT22;10593;48.398;10.698;2023-03-24T01:32:50;16.60;47.90
20866;DHT22;10593;48.398;10.698;2023-03-24T01:35:16;16.60;48.60
20866;DHT22;10593;48.398;10.698;2023-03-24T01:37:43;16.60;48.20
20866;DHT22;10593;48.398;10.698;2023-03-24T01:40:18;16.60;48.30
20866;DHT22;10593;48.398;10.698;2023-03-24T01:42:48;16.60;48.60
20866;DHT22;10593;48.398;10.698;2023-03-24T01:48:17;16.60;48.80
20866;DHT22;10593;48.398;10.698;2023-03-24T01:54:07;16.60;48.80
20866;DHT22;10593;48.398;10.698;2023-03-24T01:57:00;16.60;48.80
20866;DHT22;10593;48.398;10.698;2023-03-24T01:59:35;16.50;48.90
20866;DHT22;10593;48.398;10.698;2023-03-24T02:02:04;16.50;48.80
20866;DHT22;10593;48.398;10.698;2023-03-24T02:04:32;16.50;49.00
20866;DHT22;10593;48.398;10.698;2023-03-24T02:07:15;16.50;49.20
20866;DHT22;10593;48.398;10.698;2023-03-24T02:09:47;16.50;49.50
20866;DHT22;10593;48.398;10.698;2023-03-24T02:12:14;16.50;49.60
20866;DHT22;10593;48.398;10.698;2023-03-24T02:14:40;16.50;49.70
20866;DHT22;10593;48.398;10.698;2023-03-24T02:20:44;16.40;49.90
20866;DHT22;10593;48.398;10.698;2023-03-24T02:27:18;16.40;49.90
20866;DHT22;10593;48.398;10.698;2023-03-24T02:30:22;16.40;49.80
20866;DHT22;10593;48.398;10.698;2023-03-24T02:44:14;16.30;50.50
20866;DHT22;10593;48.398;10.698;2023-03-24T02:46:49;16.30;50.50
20866;DHT22;10593;48.398;10.698;2023-03-24T02:52:32;16.20;50.30
20866;DHT22;10593;48.398;10.698;2023-03-24T02:55:14;16.30;50.40
20866;DHT22;10593;48.398;10.698;2023-03-24T02:57:59;16.30;50.30
20866;DHT22;10593;48.398;10.698;2023-03-24T03:00:45;16.20;50.30
20866;DHT22;10593;48.398;10.698;2023-03-24T03:06:06;16.20;50.20
20866;DHT22;10593;48.398;10.698;2023-03-24T03:08:38;16.20;50.10
20866;DHT22;10593;48.398;10.698;2023-03-24T03:11:08;16.20;50.00
20866;DHT22;10593;48.398;10.698;2023-03-24T03:13:51;16.20;50.00
20866;DHT22;10593;48.398;10.698;2023-03-24T03:16:23;16.20;50.20
20866;DHT22;10593;48.398;10.698;2023-03-24T03:19:00;16.20;50.10
20866;DHT22;10593;48.398;10.698;2023-03-24T03:21:37;16.20;50.10
20866;DHT22;10593;48.398;10.698;2023-03-24T03:24:14;16.20;50.30
20866;DHT22;10593;48.398;10.698;2023-03-24T03:26:44;16.20;50.30
20866;DHT22;10593;48.398;10.698;2023-03-24T03:29:17;16.20;50.30
20866;DHT22;10593;48.398;10.698;2023-03-24T03:31:56;16.20;50.50
20866;DHT22;10593;48.398;10.698;2023-03-24T03:34:51;16.20;50.50
20866;DHT22;10593;48.398;10.698;2023-03-24T03:37:25;16.20;50.40
20866;DHT22;10593;48.398;10.698;2023-03-24T03:39:58;16.20;50.40
20866;DHT22;10593;48.398;10.698;2023-03-24T03:42:29;16.20;50.50
20866;DHT22;10593;48.398;10.698;2023-03-24T03:44:55;16.20;50.60
20866;DHT22;10593;48.398;10.698;2023-03-24T03:47:21;16.10;50.60
20866;DHT22;10593;48.398;10.698;2023-03-24T03:49:47;16.10;50.70
20866;DHT22;10593;48.398;10.698;2023-03-24T03:52:14;16.10;50.70
20866;DHT22;10593;48.398;10.698;2023-03-24T03:54:42;16.10;50.70
20866;DHT22;10593;48.398;10.698;2023-03-24T03:57:10;16.10;50.80
20866;DHT22;10593;48.398;10.698;2023-03-24T03:59:38;16.10;51.00
20866;DHT22;10593;48.398;10.698;2023-03-24T04:05:34;16.10;51.30
20866;DHT22;10593;48.398;10.698;2023-03-24T04:08:22;16.10;51.30
20866;DHT22;10593;48.398;10.698;2023-03-24T04:14:09;16.00;51.20
20866;DHT22;10593;48.398;10.698;2023-03-24T04:17:11;16.10;51.10
20866;DHT22;10593;48.398;10.698;2023-03-24T04:19:58;16.00;51.30
20866;DHT22;10593;48.398;10.698;2023-03-24T04:22:48;16.00;51.20
20866;DHT22;10593;48.398;10.698;2023-03-24T04:25:29;16.00;51.40
20866;DHT22;10593;48.398;10.698;2023-03-24T04:28:21;16.00;51.30
20866;DHT22;10593;48.398;10.698;2023-03-24T04:30:59;16.00;51.40
20866;DHT22;10593;48.398;10.698;2023-03-24T04:33:55;16.00;51.40
20866;DHT22;10593;48.398;10.698;2023-03-24T04:39:19;15.90;51.50
20866;DHT22;10593;48.398;10.698;2023-03-24T04:41:54;15.90;51.60
20866;DHT22;10593;48.398;10.698;2023-03-24T04:44:22;16.00;51.70
20866;DHT22;10593;48.398;10.698;2023-03-24T04:46:51;16.00;51.80
20866;DHT22;10593;48.398;10.698;2023-03-24T04:49:20;16.00;52.40
20866;DHT22;10593;48.398;10.698;2023-03-24T04:51:49;15.90;51.90
20866;DHT22;10593;48.398;10.698;2023-03-24T04:54:16;15.90;51.90
20866;DHT22;10593;48.398;10.698;2023-03-24T04:56:45;15.90;52.00
20866;DHT22;10593;48.398;10.698;2023-03-24T04:59:13;15.90;52.10
20866;DHT22;10593;48.398;10.698;2023-03-24T05:01:40;15.90;52.20
20866;DHT22;10593;48.398;10.698;2023-03-24T05:04:19;15.90;52.30
20866;DHT22;10593;48.398;10.698;2023-03-24T05:06:47;15.90;52.40
20866;DHT22;10593;48.398;10.698;2023-03-24T05:09:21;15.90;52.40
20866;DHT22;10593;48.398;10.698;2023-03-24T05:11:49;15.80;52.40
20866;DHT22;10593;48.398;10.698;2023-03-24T05:14:15;15.80;52.40
20866;DHT22;10593;48.398;10.698;2023-03-24T05:16:41;15.80;52.50
20866;DHT22;10593;48.398;10.698;2023-03-24T05:19:08;15.80;52.50
20866;DHT22;10593;48.398;10.698;2023-03-24T05:21:35;15.80;52.60
20866;DHT22;10593;48.398;10.698;2023-03-24T05:24:01;15.80;52.70
20866;DHT22;10593;48.398;10.698;2023-03-24T05:26:27;15.80;52.70
20866;DHT22;10593;48.398;10.698;2023-03-24T05:28:53;15.80;52.70
20866;DHT22;10593;48.398;10.698;2023-03-24T05:31:19;15.80;52.70
20866;DHT22;10593;48.398;10.698;2023-03-24T05:33:45;15.80;52.70
20866;DHT22;10593;48.398;10.698;2023-03-24T05:36:11;15.80;52.60
20866;DHT22;10593;48.398;10.698;2023-03-24T05:38:37;15.80;52.60
20866;DHT22;10593;48.398;10.698;2023-03-24T05:41:02;15.80;52.60
20866;DHT22;10593;48.398;10.698;2023-03-24T05:43:28;15.80;52.50
20866;DHT22;10593;48.398;10.698;2023-03-24T05:45:54;15.80;52.60
20866;DHT22;10593;48.398;10.698;2023-03-24T05:48:20;15.80;52.70
20866;DHT22;10593;48.398;10.698;2023-03-24T05:50:47;15.80;52.70
20866;DHT22;10593;48.398;10.698;2023-03-24T05:53:12;15.80;52.70
20866;DHT22;10593;48.398;10.698;2023-03-24T05:55:38;15.80;52.70
20866;DHT22;10593;48.398;10.698;2023-03-24T05:58:05;15.80;52.70
20866;DHT22;10593;48.398;10.698;2023-03-24T06:00:31;15.80;52.70
20866;DHT22;10593;48.398;10.698;2023-03-24T06:02:58;15.80;52.70
20866;DHT22;10593;48.398;10.698;2023-03-24T06:05:25;15.80;52.70
20866;DHT22;10593;48.398;10.698;2023-03-24T06:07:51;15.80;52.70
20866;DHT22;10593;48.398;10.698;2023-03-24T06:10:23;15.80;52.70
20866;DHT22;10593;48.398;10.698;2023-03-24T06:12:54;15.80;52.70
20866;DHT22;10593;48.398;10.698;2023-03-24T06:15:21;15.80;52.70
20866;DHT22;10593;48.398;10.698;2023-03-24T06:17:48;15.80;52.70
20866;DHT22;10593;48.398;10.698;2023-03-24T06:20:15;15.80;52.70
20866;DHT22;10593;48.398;10.698;2023-03-24T06:22:44;15.80;52.70
20866;DHT22;10593;48.398;10.698;2023-03-24T06:25:12;15.80;52.70
20866;DHT22;10593;48.398;10.698;2023-03-24T06:27:44;15.80;52.70
20866;DHT22;10593;48.398;10.698;2023-03-24T06:30:12;15.80;53.30
20866;DHT22;10593;48.398;10.698;2023-03-24T06:32:43;15.80;52.70
20866;DHT22;10593;48.398;10.698;2023-03-24T06:35:14;15.80;52.70
20866;DHT22;10593;48.398;10.698;2023-03-24T06:37:41;15.80;52.70
20866;DHT22;10593;48.398;10.698;2023-03-24T06:40:07;15.80;52.80
20866;DHT22;10593;48.398;10.698;2023-03-24T06:42:39;15.80;52.90
20866;DHT22;10593;48.398;10.698;2023-03-24T06:45:06;15.80;52.90
20866;DHT22;10593;48.398;10.698;2023-03-24T06:47:32;15.80;53.00
20866;DHT22;10593;48.398;10.698;2023-03-24T06:49:58;15.90;53.10
20866;DHT22;10593;48.398;10.698;2023-03-24T06:52:24;15.90;53.20
20866;DHT22;10593;48.398;10.698;2023-03-24T06:54:52;15.90;53.00
20866;DHT22;10593;48.398;10.698;2023-03-24T06:57:17;15.80;52.80
20866;DHT22;10593;48.398;10.698;2023-03-24T06:59:43;15.90;52.80
20866;DHT22;10593;48.398;10.698;2023-03-24T07:02:12;15.90;52.80
20866;DHT22;10593;48.398;10.698;2023-03-24T07:04:37;15.90;52.80
20866;DHT22;10593;48.398;10.698;2023-03-24T07:07:03;15.90;52.80
20866;DHT22;10593;48.398;10.698;2023-03-24T07:09:29;15.90;52.80
20866;DHT22;10593;48.398;10.698;2023-03-24T07:11:54;15.90;52.80
20866;DHT22;10593;48.398;10.698;2023-03-24T07:14:20;15.90;52.80
20866;DHT22;10593;48.398;10.698;2023-03-24T07:16:46;15.90;52.80
20866;DHT22;10593;48.398;10.698;2023-03-24T07:19:12;15.90;52.80
20866;DHT22;10593;48.398;10.698;2023-03-24T07:21:38;15.90;52.80
20866;DHT22;10593;48.398;10.698;2023-03-24T07:24:03;15.90;52.90
20866;DHT22;10593;48.398;10.698;2023-03-24T07:26:29;15.90;52.80
20866;DHT22;10593;48.398;10.698;2023-03-24T07:28:55;15.90;52.90
20866;DHT22;10593;48.398;10.698;2023-03-24T07:31:20;15.90;52.90
20866;DHT22;10593;48.398;10.698;2023-03-24T07:33:47;15.90;53.10
20866;DHT22;10593;48.398;10.698;2023-03-24T07:36:12;16.00;53.10
20866;DHT22;10593;48.398;10.698;2023-03-24T07:38:38;16.00;53.20
20866;DHT22;10593;48.398;10.698;2023-03-24T07:41:04;15.90;53.20
20866;DHT22;10593;48.398;10.698;2023-03-24T07:43:29;16.00;53.30
20866;DHT22;10593;48.398;10.698;2023-03-24T07:45:55;16.00;53.30
20866;DHT22;10593;48.398;10.698;2023-03-24T07:48:21;16.00;53.50
20866;DHT22;10593;48.398;10.698;2023-03-24T07:50:47;16.00;53.50
20866;DHT22;10593;48.398;10.698;2023-03-24T07:53:13;16.00;53.50
20866;DHT22;10593;48.398;10.698;2023-03-24T07:55:42;16.00;53.60
20866;DHT22;10593;48.398;10.698;2023-03-24T07:58:08;16.00;53.60
20866;DHT22;10593;48.398;10.698;2023-03-24T08:00:34;16.00;53.70
20866;DHT22;10593;48.398;10.698;2023-03-24T08:02:59;16.00;53.80
20866;DHT22;10593;48.398;10.698;2023-03-24T08:05:28;16.00;53.90
20866;DHT22;10593;48.398;10.698;2023-03-24T08:07:55;16.00;54.00
20866;DHT22;10593;48.398;10.698;2023-03-24T08:10:24;16.10;54.10
20866;DHT22;10593;48.398;10.698;2023-03-24T08:12:51;16.10;54.20
20866;DHT22;10593;48.398;10.698;2023-03-24T08:15:17;16.10;54.30
20866;DHT22;10593;48.398;10.698;2023-03-24T08:17:43;16.00;54.20
20866;DHT22;10593;48.398;10.698;2023-03-24T08:20:10;16.00;54.30
20866;DHT22;10593;48.398;10.698;2023-03-24T08:22:41;16.10;54.70
20866;DHT22;10593;48.398;10.698;2023-03-24T08:25:09;16.10;54.70
20866;DHT22;10593;48.398;10.698;2023-03-24T08:27:37;16.10;54.70
20866;DHT22;10593;48.398;10.698;2023-03-24T08:30:07;16.10;54.80
20866;DHT22;10593;48.398;10.698;2023-03-24T08:32:35;16.10;55.00
20866;DHT22;10593;48.398;10.698;2023-03-24T08:35:01;16.10;54.90
20866;DHT22;10593;48.398;10.698;2023-03-24T08:37:29;16.10;55.20
20866;DHT22;10593;48.398;10.698;2023-03-24T08:39:55;16.20;55.40
20866;DHT22;10593;48.398;10.698;2023-03-24T08:42:26;16.20;55.50
20866;DHT22;10593;48.398;10.698;2023-03-24T08:44:52;16.20;55.50
20866;DHT22;10593;48.398;10.698;2023-03-24T08:47:17;16.20;55.70
20866;DHT22;10593;48.398;10.698;2023-03-24T08:49:43;16.20;55.80
20866;DHT22;10593;48.398;10.698;2023-03-24T08:52:08;16.20;55.90
20866;DHT22;10593;48.398;10.698;2023-03-24T08:54:35;16.20;56.00
20866;DHT22;10593;48.398;10.698;2023-03-24T08:57:00;16.20;56.20
20866;DHT22;10593;48.398;10.698;2023-03-24T08:59:26;16.20;56.20
20866;DHT22;10593;48.398;10.698;2023-03-24T09:01:52;16.20;56.30
20866;DHT22;10593;48.398;10.698;2023-03-24T09:04:17;16.20;56.40
20866;DHT22;10593;48.398;10.698;2023-03-24T09:06:43;16.30;56.50
20866;DHT22;10593;48.398;10.698;2023-03-24T09:09:09;16.20;56.50
20866;DHT22;10593;48.398;10.698;2023-03-24T09:11:34;16.30;56.50
20866;DHT22;10593;48.398;10.698;2023-03-24T09:14:00;16.30;56.60
20866;DHT22;10593;48.398;10.698;2023-03-24T09:16:27;16.30;56.70
20866;DHT22;10593;48.398;10.698;2023-03-24T09:18:53;16.30;56.80
20866;DHT22;10593;48.398;10.698;2023-03-24T09:21:18;16.30;56.80
20866;DHT22;10593;48.398;10.698;2023-03-24T09:23:44;16.30;56.80
20866;DHT22;10593;48.398;10.698;2023-03-24T09:26:10;16.30;56.70
20866;DHT22;10593;48.398;10.698;2023-03-24T09:28:35;16.40;56.80
20866;DHT22;10593;48.398;10.698;2023-03-24T09:31:03;16.30;56.60
20866;DHT22;10593;48.398;10.698;2023-03-24T09:33:30;16.30;56.60
20866;DHT22;10593;48.398;10.698;2023-03-24T09:35:58;16.40;56.70
20866;DHT22;10593;48.398;10.698;2023-03-24T09:38:25;16.30;56.60
20866;DHT22;10593;48.398;10.698;2023-03-24T09:40:57;16.40;56.60
20866;DHT22;10593;48.398;10.698;2023-03-24T09:46:05;16.40;56.80
20866;DHT22;10593;48.398;10.698;2023-03-24T09:48:56;16.40;56.60
20866;DHT22;10593;48.398;10.698;2023-03-24T09:51:24;16.40;56.70
20866;DHT22;10593;48.398;10.698;2023-03-24T09:56:34;16.40;56.70
20866;DHT22;10593;48.398;10.698;2023-03-24T09:59:06;16.40;56.60
20866;DHT22;10593;48.398;10.698;2023-03-24T10:01:37;16.40;56.60
20866;DHT22;10593;48.398;10.698;2023-03-24T10:04:06;16.40;56.60
20866;DHT22;10593;48.398;10.698;2023-03-24T10:06:39;16.40;57.00
20866;DHT22;10593;48.398;10.698;2023-03-24T10:09:22;16.40;57.10
20866;DHT22;10593;48.398;10.698;2023-03-24T10:17:59;16.40;57.20
20866;DHT22;10593;48.398;10.698;2023-03-24T10:23:33;16.40;57.70
20866;DHT22;10593;48.398;10.698;2023-03-24T10:26:35;16.40;57.90
20866;DHT22;10593;48.398;10.698;2023-03-24T10:29:20;16.40;58.30
20866;DHT22;10593;48.398;10.698;2023-03-24T10:31:50;16.40;58.10
20866;DHT22;10593;48.398;10.698;2023-03-24T10:34:23;16.40;58.20
20866;DHT22;10593;48.398;10.698;2023-03-24T10:36:55;16.40;58.10
20866;DHT22;10593;48.398;10.698;2023-03-24T10:39:22;16.40;58.10
20866;DHT22;10593;48.398;10.698;2023-03-24T10:41:50;16.40;58.00
20866;DHT22;10593;48.398;10.698;2023-03-24T10:44:19;16.40;58.00
20866;DHT22;10593;48.398;10.698;2023-03-24T10:46:49;16.40;57.90
20866;DHT22;10593;48.398;10.698;2023-03-24T10:49:20;16.40;58.00
20866;DHT22;10593;48.398;10.698;2023-03-24T10:51:59;16.50;58.10
20866;DHT22;10593;48.398;10.698;2023-03-24T10:54:29;16.50;58.30
20866;DHT22;10593;48.398;10.698;2023-03-24T11:02:40;16.50;58.50
20866;DHT22;10593;48.398;10.698;2023-03-24T11:05:20;16.50;58.10
20866;DHT22;10593;48.398;10.698;2023-03-24T11:07:56;16.50;58.30
20866;DHT22;10593;48.398;10.698;2023-03-24T11:10:34;16.60;58.20
20866;DHT22;10593;48.398;10.698;2023-03-24T11:13:01;16.60;58.40
20866;DHT22;10593;48.398;10.698;2023-03-24T11:15:31;16.60;58.50
20866;DHT22;10593;48.398;10.698;2023-03-24T11:18:00;16.60;58.50
20866;DHT22;10593;48.398;10.698;2023-03-24T11:20:35;16.60;58.40
20866;DHT22;10593;48.398;10.698;2023-03-24T11:23:10;16.70;58.40
20866;DHT22;10593;48.398;10.698;2023-03-24T11:26:05;16.70;58.30
20866;DHT22;10593;48.398;10.698;2023-03-24T11:28:38;16.70;58.40
20866;DHT22;10593;48.398;10.698;2023-03-24T11:31:10;16.70;58.40
20866;DHT22;10593;48.398;10.698;2023-03-24T11:33:54;16.80;58.20
20866;DHT22;10593;48.398;10.698;2023-03-24T11:39:02;16.80;57.70
20866;DHT22;10593;48.398;10.698;2023-03-24T11:56:06;16.90;56.90
20866;DHT22;10593;48.398;10.698;2023-03-24T11:59:06;17.00;56.90
20866;DHT22;10593;48.398;10.698;2023-03-24T12:01:49;17.00;56.70
20866;DHT22;10593;48.398;10.698;2023-03-24T12:10:37;17.00;56.50
20866;DHT22;10593;48.398;10.698;2023-03-24T12:13:15;17.00;56.40
20866;DHT22;10593;48.398;10.698;2023-03-24T12:30:42;17.00;55.40
20866;DHT22;10593;48.398;10.698;2023-03-24T12:39:35;17.10;55.10
20866;DHT22;10593;48.398;10.698;2023-03-24T12:42:19;17.10;54.90
20866;DHT22;10593;48.398;10.698;2023-03-24T12:57:07;17.10;54.20
20866;DHT22;10593;48.398;10.698;2023-03-24T12:59:45;17.10;54.10
20866;DHT22;10593;48.398;10.698;2023-03-24T13:02:34;17.10;53.80
20866;DHT22;10593;48.398;10.698;2023-03-24T13:05:14;17.10;53.80
20866;DHT22;10593;48.398;10.698;2023-03-24T13:07:46;17.10;53.80
20866;DHT22;10593;48.398;10.698;2023-03-24T13:10:25;17.10;53.80
20866;DHT22;10593;48.398;10.698;2023-03-24T13:15:52;17.10;54.20
20866;DHT22;10593;48.398;10.698;2023-03-24T13:18:44;17.10;53.80
20866;DHT22;10593;48.398;10.698;2023-03-24T13:21:16;17.10;53.80
20866;DHT22;10593;48.398;10.698;2023-03-24T13:23:59;17.10;53.80
20866;DHT22;10593;48.398;10.698;2023-03-24T13:32:50;17.20;53.90
20866;DHT22;10593;48.398;10.698;2023-03-24T13:35:44;17.20;53.90
20866;DHT22;10593;48.398;10.698;2023-03-24T13:41:10;17.20;53.40
20866;DHT22;10593;48.398;10.698;2023-03-24T13:43:49;17.20;53.30
20866;DHT22;10593;48.398;10.698;2023-03-24T13:46:22;17.20;53.00
20866;DHT22;10593;48.398;10.698;2023-03-24T13:48:56;17.20;52.90
20866;DHT22;10593;48.398;10.698;2023-03-24T13:51:29;17.20;52.60
20866;DHT22;10593;48.398;10.698;2023-03-24T13:56:52;17.20;52.50
20866;DHT22;10593;48.398;10.698;2023-03-24T14:04:47;17.20;53.10
20866;DHT22;10593;48.398;10.698;2023-03-24T14:15:29;17.20;53.40
20866;DHT22;10593;48.398;10.698;2023-03-24T14:23:46;17.10;53.10
20866;DHT22;10593;48.398;10.698;2023-03-24T14:28:54;17.10;52.90
20866;DHT22;10593;48.398;10.698;2023-03-24T14:33:58;17.20;52.90
20866;DHT22;10593;48.398;10.698;2023-03-24T14:39:18;17.20;52.60
20866;DHT22;10593;48.398;10.698;2023-03-24T14:41:51;17.20;52.50
20866;DHT22;10593;48.398;10.698;2023-03-24T14:47:32;17.20;52.30
20866;DHT22;10593;48.398;10.698;2023-03-24T14:50:21;17.20;52.20
20866;DHT22;10593;48.398;10.698;2023-03-24T14:52:54;17.20;52.10
20866;DHT22;10593;48.398;10.698;2023-03-24T14:55:23;17.20;52.10
20866;DHT22;10593;48.398;10.698;2023-03-24T14:57:55;17.20;52.10
20866;DHT22;10593;48.398;10.698;2023-03-24T15:00:35;17.20;52.00
20866;DHT22;10593;48.398;10.698;2023-03-24T15:05:53;17.20;51.80
20866;DHT22;10593;48.398;10.698;2023-03-24T15:08:25;17.10;51.80
20866;DHT22;10593;48.398;10.698;2023-03-24T15:11:07;17.10;51.90
20866;DHT22;10593;48.398;10.698;2023-03-24T15:13:36;17.10;51.90
20866;DHT22;10593;48.398;10.698;2023-03-24T15:16:16;17.10;52.00
20866;DHT22;10593;48.398;10.698;2023-03-24T15:23:53;17.10;52.70
20866;DHT22;10593;48.398;10.698;2023-03-24T15:26:21;17.10;52.80
20866;DHT22;10593;48.398;10.698;2023-03-24T15:28:58;17.00;52.90
20866;DHT22;10593;48.398;10.698;2023-03-24T15:31:27;17.00;53.20
20866;DHT22;10593;48.398;10.698;2023-03-24T15:34:40;17.00;53.10
20866;DHT22;10593;48.398;10.698;2023-03-24T15:37:30;17.00;53.50
20866;DHT22;10593;48.398;10.698;2023-03-24T15:39:58;17.00;53.70
20866;DHT22;10593;48.398;10.698;2023-03-24T15:42:24;16.90;53.40
20866;DHT22;10593;48.398;10.698;2023-03-24T15:44:51;17.00;53.70
20866;DHT22;10593;48.398;10.698;2023-03-24T15:47:27;16.90;53.70
20866;DHT22;10593;48.398;10.698;2023-03-24T15:49:58;16.90;53.70
20866;DHT22;10593;48.398;10.698;2023-03-24T15:55:13;16.80;53.90
20866;DHT22;10593;48.398;10.698;2023-03-24T15:58:19;16.80;54.00
20866;DHT22;10593;48.398;10.698;2023-03-24T16:00:46;16.80;54.10
20866;DHT22;10593;48.398;10.698;2023-03-24T16:03:13;16.80;54.20
20866;DHT22;10593;48.398;10.698;2023-03-24T16:05:48;16.80;54.30
20866;DHT22;10593;48.398;10.698;2023-03-24T16:08:32;16.70;54.50
20866;DHT22;10593;48.398;10.698;2023-03-24T16:11:08;16.70;54.60
20866;DHT22;10593;48.398;10.698;2023-03-24T16:13:37;16.70;54.50
20866;DHT22;10593;48.398;10.698;2023-03-24T16:18:45;16.70;54.70
20866;DHT22;10593;48.398;10.698;2023-03-24T16:21:21;16.60;54.50
20866;DHT22;10593;48.398;10.698;2023-03-24T16:23:50;16.60;54.80
20866;DHT22;10593;48.398;10.698;2023-03-24T16:26:22;16.60;54.90
20866;DHT22;10593;48.398;10.698;2023-03-24T16:28:53;16.60;54.90
20866;DHT22;10593;48.398;10.698;2023-03-24T16:31:25;16.60;55.00
20866;DHT22;10593;48.398;10.698;2023-03-24T16:33:55;16.60;55.00
20866;DHT22;10593;48.398;10.698;2023-03-24T16:36:22;16.60;55.00
20866;DHT22;10593;48.398;10.698;2023-03-24T16:38:54;16.60;55.00
20866;DHT22;10593;48.398;10.698;2023-03-24T16:41:22;16.50;54.90
20866;DHT22;10593;48.398;10.698;2023-03-24T16:43:48;16.50;54.90
20866;DHT22;10593;48.398;10.698;2023-03-24T16:48:52;16.50;54.90
20866;DHT22;10593;48.398;10.698;2023-03-24T16:51:18;16.50;54.70
20866;DHT22;10593;48.398;10.698;2023-03-24T16:53:45;16.50;54.70
20866;DHT22;10593;48.398;10.698;2023-03-24T16:56:21;16.50;54.80
20866;DHT22;10593;48.398;10.698;2023-03-24T16:58:48;16.40;54.70
20866;DHT22;10593;48.398;10.698;2023-03-24T17:01:31;16.40;54.60
20866;DHT22;10593;48.398;10.698;2023-03-24T17:04:07;16.40;54.50
20866;DHT22;10593;48.398;10.698;2023-03-24T17:06:41;16.40;54.50
20866;DHT22;10593;48.398;10.698;2023-03-24T17:09:09;16.40;54.50
20866;DHT22;10593;48.398;10.698;2023-03-24T17:11:39;16.40;54.90
20866;DHT22;10593;48.398;10.698;2023-03-24T17:14:07;16.40;54.40
20866;DHT22;10593;48.398;10.698;2023-03-24T17:16:38;16.40;54.40
20866;DHT22;10593;48.398;10.698;2023-03-24T17:19:09;16.30;54.20
20866;DHT22;10593;48.398;10.698;2023-03-24T17:21:40;16.30;54.20
20866;DHT22;10593;48.398;10.698;2023-03-24T17:24:13;16.30;54.00
20866;DHT22;10593;48.398;10.698;2023-03-24T17:26:40;16.30;53.90
20866;DHT22;10593;48.398;10.698;2023-03-24T17:29:08;16.30;53.90
20866;DHT22;10593;48.398;10.698;2023-03-24T17:31:35;16.20;53.80
20866;DHT22;10593;48.398;10.698;2023-03-24T17:34:01;16.20;53.70
20866;DHT22;10593;48.398;10.698;2023-03-24T17:36:27;16.20;53.70
20866;DHT22;10593;48.398;10.698;2023-03-24T17:38:52;16.20;53.70
20866;DHT22;10593;48.398;10.698;2023-03-24T17:41:18;16.20;53.60
20866;DHT22;10593;48.398;10.698;2023-03-24T17:43:44;16.20;53.50
20866;DHT22;10593;48.398;10.698;2023-03-24T17:46:11;16.20;53.60
20866;DHT22;10593;48.398;10.698;2023-03-24T17:48:37;16.20;53.50
20866;DHT22;10593;48.398;10.698;2023-03-24T17:51:03;16.20;53.40
20866;DHT22;10593;48.398;10.698;2023-03-24T17:53:29;16.10;53.30
20866;DHT22;10593;48.398;10.698;2023-03-24T17:56:00;16.10;53.30
20866;DHT22;10593;48.398;10.698;2023-03-24T17:58:30;16.10;53.40
20866;DHT22;10593;48.398;10.698;2023-03-24T18:00:58;16.10;53.30
20866;DHT22;10593;48.398;10.698;2023-03-24T18:03:25;16.10;53.10
20866;DHT22;10593;48.398;10.698;2023-03-24T18:05:52;16.10;53.00
20866;DHT22;10593;48.398;10.698;2023-03-24T18:08:18;16.10;53.00
20866;DHT22;10593;48.398;10.698;2023-03-24T18:10:44;16.00;52.90
20866;DHT22;10593;48.398;10.698;2023-03-24T18:13:11;16.00;52.90
20866;DHT22;10593;48.398;10.698;2023-03-24T18:15:40;16.00;52.90
20866;DHT22;10593;48.398;10.698;2023-03-24T18:18:07;16.00;52.90
20866;DHT22;10593;48.398;10.698;2023-03-24T18:20:33;16.00;52.90
20866;DHT22;10593;48.398;10.698;2023-03-24T18:23:00;16.00;52.90
20866;DHT22;10593;48.398;10.698;2023-03-24T18:25:26;15.90;52.80
20866;DHT22;10593;48.398;10.698;2023-03-24T18:27:52;15.90;52.80
20866;DHT22;10593;48.398;10.698;2023-03-24T18:30:19;15.90;52.70
20866;DHT22;10593;48.398;10.698;2023-03-24T18:32:46;15.90;52.70
20866;DHT22;10593;48.398;10.698;2023-03-24T18:35:12;15.90;52.60
20866;DHT22;10593;48.398;10.698;2023-03-24T18:37:41;15.80;52.50